Time;durP1;ratioP1;P1;durP2;ratioP2;P2;SDS_P1;SDS_P2;PMS_P1;PMS_P2;Temp;Humidity;BMP_temperature;BMP_pressure;BME280_temperature;BME280_humidity;BME280_pressure;Samples;Min_cycle;Max_cycle;Signal;HPM_P1;HPM_P2
2021/10/04 00:00:36;;;;;;;;;;;;;;;22.06;48.10;95595.03;1048738;28;960;-59
2021/10/04 00:01:25;;;;;;;;;;;;;;;22.04;48.16;95586.59;1051289;28;896;-60
2021/10/04 00:02:15;;;;;;;;;;;;;;;22.05;48.51;95596.09;1050795;28;1410;-60
2021/10/04 00:03:04;;;;;;;;;;;;;;;22.06;48.17;95599.50;1050804;28;871;-60
2021/10/04 00:03:53;;;;;;;;;;;;;;;22.05;48.23;95596.09;1045630;28;1468;-58
2021/10/04 00:04:42;;;;;;;;;;;;;;;22.06;48.53;95602.16;1049799;28;1470;-58
2021/10/04 00:05:31;;;;;;;;;;;;;;;22.06;48.39;95602.16;1049022;28;1387;-59
2021/10/04 00:06:20;;;;;;;;;;;;;;;22.06;48.47;95602.94;1051487;28;1081;-59
2021/10/04 00:07:09;;;;;;;;;;;;;;;22.05;48.52;95596.09;1052552;28;1380;-59
2021/10/04 00:07:58;;;;;;;;;;;;;;;22.06;48.21;95597.66;1049191;28;1459;-60
2021/10/04 00:08:47;;;;;;;;;;;;;;;22.05;48.28;95604.00;1049986;28;925;-60
2021/10/04 00:09:37;;;;;;;;;;;;;;;22.06;48.07;95597.66;1048608;28;2073;-59
2021/10/04 00:10:27;;;;;;;;;;;;;;;22.05;48.34;95596.09;1052500;28;803;-59
2021/10/04 00:11:16;;;;;;;;;;;;;;;22.05;48.38;95596.09;1049688;28;1035;-58
2021/10/04 00:12:05;;;;;;;;;;;;;;;22.05;48.34;95590.81;1052284;28;978;-59
2021/10/04 00:12:54;;;;;;;;;;;;;;;22.05;48.26;95596.09;1048031;28;1502;-60
2021/10/04 00:13:43;;;;;;;;;;;;;;;22.05;48.22;95593.44;1045034;28;910;-60
2021/10/04 00:14:33;;;;;;;;;;;;;;;22.06;48.46;95596.88;1049210;28;1883;-58
2021/10/04 00:15:24;;;;;;;;;;;;;;;22.06;48.55;95591.59;1047820;28;1725;-59
2021/10/04 00:15:55;;;;;;;;;;;;;;;22.05;48.27;95596.09;1048053;28;1041;-58
2021/10/04 00:16:25;;;;;;;;;;;;;;;22.06;48.22;95595.03;1045544;28;1170;-60
2021/10/04 00:16:56;;;;;;;;;;;;;;;22.06;48.26;95592.38;1049530;28;1029;-57
2021/10/04 00:17:27;;;;;;;;;;;;;;;22.06;48.18;95591.59;1046338;28;1153;-59
2021/10/04 00:17:57;;;;;;;;;;;;;;;22.05;48.30;95596.09;1048733;28;1268;-59
2021/10/04 00:18:29;;;;;;;;;;;;;;;22.04;48.13;95588.47;1048112;28;1182;-57
2021/10/04 00:18:59;;;;;;;;;;;;;;;22.05;48.41;95590.81;1048804;28;1115;-59
2021/10/04 00:19:29;;;;;;;;;;;;;;;22.06;48.20;95592.38;1051877;28;1864;-59
2021/10/04 00:20:00;;;;;;;;;;;;;;;22.06;48.26;95586.31;1051325;28;2199;-59
2021/10/04 00:20:30;;;;;;;;;;;;;;;22.05;48.40;95596.09;1052773;28;1252;-60
2021/10/04 00:21:00;;;;;;;;;;;;;;;22.05;48.21;95590.81;1050661;28;1080;-58
2021/10/04 00:21:31;;;;;;;;;;;;;;;22.06;48.54;95592.38;1050091;28;1146;-59
2021/10/04 00:22:01;;;;;;;;;;;;;;;22.06;48.50;95592.38;1049802;28;1473;-60
2021/10/04 00:22:31;;;;;;;;;;;;;;;22.06;48.69;95589.75;1050826;28;1972;-58
2021/10/04 00:23:02;;;;;;;;;;;;;;;22.06;48.25;95586.31;1049654;28;1048;-58
2021/10/04 00:23:33;;;;;;;;;;;;;;;22.05;48.30;95590.81;1048588;28;1035;-58
2021/10/04 00:24:03;;;;;;;;;;;;;;;22.06;48.35;95586.31;1048432;28;1119;-60
2021/10/04 00:24:34;;;;;;;;;;;;;;;22.05;48.41;95593.44;1047283;28;1908;-60
2021/10/04 00:25:04;;;;;;;;;;;;;;;22.04;48.26;95580.53;1047778;28;1058;-59
2021/10/04 00:25:35;;;;;;;;;;;;;;;22.05;48.40;95585.53;1053138;28;831;-57
2021/10/04 00:26:05;;;;;;;;;;;;;;;22.05;48.34;95582.88;1052562;28;1060;-58
2021/10/04 00:26:35;;;;;;;;;;;;;;;22.04;48.16;95583.97;1049269;28;1122;-58
2021/10/04 00:27:06;;;;;;;;;;;;;;;22.06;48.14;95581.03;1047776;28;1370;-56
2021/10/04 00:27:36;;;;;;;;;;;;;;;22.05;48.23;95585.53;1041653;28;1506;-58
2021/10/04 00:28:06;;;;;;;;;;;;;;;22.06;48.48;95592.38;1042679;28;1053;-60
2021/10/04 00:28:37;;;;;;;;;;;;;;;22.06;48.28;95589.75;1044876;28;1623;-60
2021/10/04 00:29:07;;;;;;;;;;;;;;;22.05;48.46;95580.25;1049855;28;2251;-60
2021/10/04 00:29:40;;;;;;;;;;;;;;;22.06;48.37;95586.31;1051619;28;2047;-58
2021/10/04 00:30:11;;;;;;;;;;;;;;;22.06;48.44;95583.69;1052010;28;1083;-58
2021/10/04 00:30:41;;;;;;;;;;;;;;;22.06;48.40;95592.38;1052804;28;1020;-60
2021/10/04 00:31:12;;;;;;;;;;;;;;;22.06;48.30;95596.88;1050230;28;1856;-59
2021/10/04 00:31:48;;;;;;;;;;;;;;;22.04;48.13;95589.25;1052641;28;1043;-60
2021/10/04 00:32:18;;;;;;;;;;;;;;;22.05;48.58;95585.53;1050376;28;1189;-59
2021/10/04 00:32:49;;;;;;;;;;;;;;;22.06;48.32;95594.22;1048356;28;986;-59
2021/10/04 00:33:19;;;;;;;;;;;;;;;22.06;48.48;95591.59;1044797;28;1119;-55
2021/10/04 00:33:50;;;;;;;;;;;;;;;22.06;48.35;95589.75;1043143;28;1553;-59
2021/10/04 00:34:20;;;;;;;;;;;;;;;22.05;48.23;95590.81;1042240;28;1459;-59
2021/10/04 00:34:50;;;;;;;;;;;;;;;22.07;48.38;95593.19;1043138;28;2063;-58
2021/10/04 00:35:21;;;;;;;;;;;;;;;22.05;48.41;95588.16;1047134;28;1402;-60
2021/10/04 00:35:52;;;;;;;;;;;;;;;22.06;48.18;95586.31;1050621;28;1200;-58
2021/10/04 00:36:22;;;;;;;;;;;;;;;22.06;48.42;95596.88;1050963;28;1721;-58
2021/10/04 00:36:52;;;;;;;;;;;;;;;22.05;48.48;95588.16;1052760;28;1008;-56
2021/10/04 00:37:31;;;;;;;;;;;;;;;22.04;48.28;95591.88;1048564;28;1339;-60
2021/10/04 00:38:02;;;;;;;;;;;;;;;22.06;48.12;95586.31;1050325;28;1080;-55
2021/10/04 00:38:33;;;;;;;;;;;;;;;22.06;48.53;95586.31;1052414;28;1377;-60
2021/10/04 00:39:03;;;;;;;;;;;;;;;22.05;48.42;95590.81;1047784;28;1161;-57
2021/10/04 00:39:45;;;;;;;;;;;;;;;22.05;48.29;95585.53;1047314;28;1985;-58
2021/10/04 00:40:16;;;;;;;;;;;;;;;22.06;48.54;95583.69;1049832;28;1425;-60
2021/10/04 00:40:46;;;;;;;;;;;;;;;22.06;48.39;95581.81;1047163;28;1033;-60
2021/10/04 00:41:17;;;;;;;;;;;;;;;22.05;48.04;95580.25;1052090;28;1133;-60
2021/10/04 00:41:47;;;;;;;;;;;;;;;22.07;48.50;95587.91;1048956;28;1787;-56
2021/10/04 00:42:20;;;;;;;;;;;;;;;22.05;48.28;95580.25;1052201;28;1115;-60
2021/10/04 00:42:50;;;;;;;;;;;;;;;22.05;48.44;95585.53;1052612;28;1910;-58
2021/10/04 00:43:21;;;;;;;;;;;;;;;22.06;48.36;95581.03;1052547;28;1157;-60
2021/10/04 00:43:51;;;;;;;;;;;;;;;22.06;48.26;95587.09;1051558;28;1321;-60
2021/10/04 00:44:23;;;;;;;;;;;;;;;22.05;48.30;95585.53;1051274;28;1203;-58
2021/10/04 00:44:53;;;;;;;;;;;;;;;22.05;48.33;95585.53;1044048;28;2042;-59
2021/10/04 00:45:24;;;;;;;;;;;;;;;22.06;48.21;95579.19;1049230;28;1302;-60
2021/10/04 00:45:54;;;;;;;;;;;;;;;22.06;48.39;95583.69;1050284;28;1080;-59
2021/10/04 00:46:25;;;;;;;;;;;;;;;22.06;48.22;95579.19;1051245;28;1141;-58
2021/10/04 00:46:57;;;;;;;;;;;;;;;22.05;48.09;95582.88;1051496;28;1033;-60
2021/10/04 00:47:27;;;;;;;;;;;;;;;22.06;48.41;95575.75;1049807;28;2549;-58
2021/10/04 00:48:05;;;;;;;;;;;;;;;22.05;48.28;95585.53;1049388;28;1064;-60
2021/10/04 00:48:35;;;;;;;;;;;;;;;22.06;48.11;95584.47;1051360;28;1055;-59
2021/10/04 00:49:05;;;;;;;;;;;;;;;22.07;48.48;95590.53;1049556;28;1069;-56
2021/10/04 00:49:36;;;;;;;;;;;;;;;22.05;48.43;95582.88;1051653;28;1412;-59
2021/10/04 00:50:07;;;;;;;;;;;;;;;22.06;48.31;95587.09;1049611;28;2192;-59
2021/10/04 00:50:37;;;;;;;;;;;;;;;22.06;48.32;95583.69;1052753;28;809;-56
2021/10/04 00:51:07;;;;;;;;;;;;;;;22.05;48.33;95580.25;1052689;28;1088;-59
2021/10/04 00:51:38;;;;;;;;;;;;;;;22.05;48.25;95593.44;1050939;28;1532;-57
2021/10/04 00:52:08;;;;;;;;;;;;;;;22.06;48.65;95581.81;1051990;28;1107;-59
2021/10/04 00:52:39;;;;;;;;;;;;;;;22.06;48.29;95591.59;1048324;28;1067;-58
2021/10/04 00:53:09;;;;;;;;;;;;;;;22.06;48.28;95588.97;1051567;28;1131;-60
2021/10/04 00:53:39;;;;;;;;;;;;;;;22.06;48.45;95589.75;1052669;28;1213;-60
2021/10/04 00:54:10;;;;;;;;;;;;;;;22.05;48.49;95585.53;1048140;28;1049;-60
2021/10/04 00:54:40;;;;;;;;;;;;;;;22.06;48.46;95587.09;1049980;28;1883;-58
2021/10/04 00:55:10;;;;;;;;;;;;;;;22.05;48.44;95582.88;1050470;28;1562;-56
2021/10/04 00:55:43;;;;;;;;;;;;;;;22.06;48.49;95592.38;1052640;28;1055;-60
2021/10/04 00:56:14;;;;;;;;;;;;;;;22.05;48.38;95590.81;1050676;28;1863;-58
2021/10/04 00:56:44;;;;;;;;;;;;;;;22.04;48.18;95586.59;1052101;28;1634;-58
2021/10/04 00:57:14;;;;;;;;;;;;;;;22.06;48.21;95583.69;1051807;28;1768;-59
2021/10/04 00:57:45;;;;;;;;;;;;;;;22.05;48.48;95580.25;1050356;28;1308;-59
2021/10/04 00:58:15;;;;;;;;;;;;;;;22.05;48.28;95580.25;1047265;28;1157;-59
2021/10/04 00:58:46;;;;;;;;;;;;;;;22.06;48.51;95584.47;1044493;28;1131;-57
2021/10/04 00:59:17;;;;;;;;;;;;;;;22.06;48.19;95578.41;1043846;28;1536;-60
2021/10/04 00:59:48;;;;;;;;;;;;;;;22.06;48.33;95578.41;1043347;28;1882;-60
2021/10/04 01:00:19;;;;;;;;;;;;;;;22.06;48.19;95573.13;1046925;28;1217;-60
2021/10/04 01:00:50;;;;;;;;;;;;;;;22.06;48.38;95581.81;1044546;28;1148;-60
2021/10/04 01:01:20;;;;;;;;;;;;;;;22.06;48.51;95573.13;1048847;28;1150;-59
2021/10/04 01:01:50;;;;;;;;;;;;;;;22.06;48.47;95575.75;1051792;28;1335;-58
2021/10/04 01:02:21;;;;;;;;;;;;;;;22.07;48.13;95578.09;1048067;28;1118;-54
2021/10/04 01:02:51;;;;;;;;;;;;;;;22.07;48.57;95577.34;1047041;28;1922;-58
2021/10/04 01:03:21;;;;;;;;;;;;;;;22.07;48.26;95583.38;1045728;28;1147;-55
2021/10/04 01:03:52;;;;;;;;;;;;;;;22.07;48.29;95583.38;1045132;28;1578;-57
2021/10/04 01:04:26;;;;;;;;;;;;;;;22.07;48.46;95583.38;1049382;28;1132;-58
2021/10/04 01:04:56;;;;;;;;;;;;;;;22.06;48.48;95575.75;1049049;28;1915;-58
2021/10/04 01:05:26;;;;;;;;;;;;;;;22.06;48.37;95583.69;1048704;28;1581;-59
2021/10/04 01:05:57;;;;;;;;;;;;;;;22.06;48.22;95578.41;1051586;28;1092;-59
2021/10/04 01:06:28;;;;;;;;;;;;;;;22.06;48.28;95579.19;1046976;28;1390;-60
2021/10/04 01:07:18;;;;;;;;;;;;;;;22.05;48.47;95574.97;1046221;28;1227;-60
2021/10/04 01:08:08;;;;;;;;;;;;;;;22.06;48.51;95573.91;1046936;28;1148;-59
2021/10/04 01:08:58;;;;;;;;;;;;;;;22.07;48.24;95580.75;1051969;28;1056;-59
2021/10/04 01:09:49;;;;;;;;;;;;;;;22.06;48.43;95571.28;1050515;28;1963;-59
2021/10/04 01:10:30;;;;;;;;;;;;;;;22.06;48.67;95581.81;1045532;28;1410;-57
2021/10/04 01:11:20;;;;;;;;;;;;;;;22.06;48.32;95579.19;1041772;28;1270;-60
2021/10/04 01:12:10;;;;;;;;;;;;;;;22.06;48.42;95579.19;1039752;28;1621;-59
2021/10/04 01:12:49;;;;;;;;;;;;;;;22.06;48.48;95575.75;1042073;28;1348;-60
2021/10/04 01:13:19;;;;;;;;;;;;;;;22.05;48.34;95574.97;1042809;28;1222;-58
2021/10/04 01:13:50;;;;;;;;;;;;;;;22.07;48.42;95579.97;1037251;28;1345;-59
2021/10/04 01:14:40;;;;;;;;;;;;;;;22.05;48.18;95580.25;1041499;28;1110;-59
2021/10/04 01:15:30;;;;;;;;;;;;;;;22.06;48.29;95581.81;1049792;28;1555;-57
2021/10/04 01:16:21;;;;;;;;;;;;;;;22.06;48.38;95587.09;1048715;28;1182;-57
2021/10/04 01:17:11;;;;;;;;;;;;;;;22.07;48.32;95588.66;1047346;28;1246;-58
2021/10/04 01:17:51;;;;;;;;;;;;;;;22.06;48.30;95586.31;1044368;28;1402;-58
2021/10/04 01:18:22;;;;;;;;;;;;;;;22.05;48.20;95582.88;1045829;28;1127;-60
2021/10/04 01:18:55;;;;;;;;;;;;;;;22.06;48.26;95581.03;1050965;28;1450;-60
2021/10/04 01:19:45;;;;;;;;;;;;;;;22.08;48.34;95581.53;1048751;28;1165;-57
2021/10/04 01:20:35;;;;;;;;;;;;;;;22.07;48.32;95582.63;1051583;28;1363;-56
2021/10/04 01:21:06;;;;;;;;;;;;;;;22.06;48.36;95584.47;1052049;28;1088;-56
2021/10/04 01:21:57;;;;;;;;;;;;;;;22.06;48.34;95581.81;1049746;28;1167;-58
2021/10/04 01:22:47;;;;;;;;;;;;;;;22.05;48.40;95580.25;1049747;28;1979;-59
2021/10/04 01:23:18;;;;;;;;;;;;;;;22.06;48.44;95578.41;1052737;28;1134;-60
2021/10/04 01:23:48;;;;;;;;;;;;;;;22.05;48.21;95580.25;1052455;28;1129;-59
2021/10/04 01:24:38;;;;;;;;;;;;;;;22.06;48.27;95578.41;1049361;28;1554;-59
2021/10/04 01:25:29;;;;;;;;;;;;;;;22.04;48.44;95576.06;1051416;28;1202;-57
2021/10/04 01:25:59;;;;;;;;;;;;;;;22.05;48.23;95580.25;1050812;28;1614;-59
2021/10/04 01:26:50;;;;;;;;;;;;;;;22.06;48.29;95579.19;1049236;28;1556;-59
2021/10/04 01:27:40;;;;;;;;;;;;;;;22.06;48.53;95578.41;1052229;28;1315;-55
2021/10/04 01:28:30;;;;;;;;;;;;;;;22.06;48.44;95583.69;1050689;28;1192;-60
2021/10/04 01:29:01;;;;;;;;;;;;;;;22.05;48.29;95574.97;1052644;28;1076;-56
2021/10/04 01:29:31;;;;;;;;;;;;;;;22.05;48.47;95582.88;1048411;28;1643;-59
2021/10/04 01:30:23;;;;;;;;;;;;;;;22.05;48.26;95569.69;1052271;28;1585;-58
2021/10/04 01:31:13;;;;;;;;;;;;;;;22.05;48.30;95580.25;1052349;28;1143;-57
2021/10/04 01:31:46;;;;;;;;;;;;;;;22.06;48.53;95578.41;1051962;28;1165;-57
2021/10/04 01:32:36;;;;;;;;;;;;;;;22.05;48.54;95567.03;1043705;28;1307;-59
2021/10/04 01:33:26;;;;;;;;;;;;;;;22.06;48.39;95573.91;1048571;28;1078;-62
2021/10/04 01:33:57;;;;;;;;;;;;;;;22.07;48.27;95578.09;1050669;28;1655;-59
2021/10/04 01:34:27;;;;;;;;;;;;;;;22.06;48.31;95576.56;1051942;28;1157;-60
2021/10/04 01:35:18;;;;;;;;;;;;;;;22.06;48.31;95571.28;1045656;28;2073;-59
2021/10/04 01:36:08;;;;;;;;;;;;;;;22.06;48.21;95578.41;1048923;28;1617;-58
2021/10/04 01:36:44;;;;;;;;;;;;;;;22.05;48.28;95569.69;1049377;28;1164;-58
2021/10/04 01:37:35;;;;;;;;;;;;;;;22.06;48.37;95581.03;1049505;28;1428;-58
2021/10/04 01:38:25;;;;;;;;;;;;;;;22.05;48.11;95580.25;1049888;28;1302;-58
2021/10/04 01:38:59;;;;;;;;;;;;;;;22.04;48.47;95572.63;1049333;28;1029;-56
2021/10/04 01:39:29;;;;;;;;;;;;;;;22.06;48.32;95581.03;1052451;28;1334;-58
2021/10/04 01:40:12;;;;;;;;;;;;;;;22.06;48.33;95581.03;1046152;28;1917;-57
2021/10/04 01:41:02;;;;;;;;;;;;;;;22.05;48.47;95580.25;1042882;28;1356;-57
2021/10/04 01:41:53;;;;;;;;;;;;;;;22.07;48.56;95579.97;1043085;28;1159;-60
2021/10/04 01:42:29;;;;;;;;;;;;;;;22.07;48.38;95579.97;1050320;28;1910;-59
2021/10/04 01:43:20;;;;;;;;;;;;;;;22.06;48.28;95576.56;1049612;28;1212;-56
2021/10/04 01:43:57;;;;;;;;;;;;;;;22.05;48.29;95580.25;1051865;28;1671;-60
2021/10/04 01:44:40;;;;;;;;;;;;;;;22.06;48.42;95579.19;1047578;28;1174;-58
2021/10/04 01:45:30;;;;;;;;;;;;;;;22.05;48.14;95574.97;1045851;28;1271;-59
2021/10/04 01:46:20;;;;;;;;;;;;;;;22.06;48.35;95575.75;1048729;28;1288;-59
2021/10/04 01:47:09;;;;;;;;;;;;;;;22.06;48.19;95581.03;1050597;28;1914;-56
2021/10/04 01:47:39;;;;;;;;;;;;;;;22.06;48.28;95579.19;1048334;28;1476;-58
2021/10/04 01:48:30;;;;;;;;;;;;;;;22.04;48.34;95576.06;1050152;28;1144;-58
2021/10/04 01:49:20;;;;;;;;;;;;;;;22.06;48.49;95579.19;1048778;28;1941;-57
2021/10/04 01:50:10;;;;;;;;;;;;;;;22.06;48.57;95584.47;1050025;28;1923;-58
2021/10/04 01:50:43;;;;;;;;;;;;;;;22.06;48.18;95581.81;1049182;28;1607;-59
2021/10/04 01:51:34;;;;;;;;;;;;;;;22.06;48.49;95589.75;1042577;28;1222;-60
2021/10/04 01:52:24;;;;;;;;;;;;;;;22.05;48.18;95580.25;1047510;28;1228;-60
2021/10/04 01:53:07;;;;;;;;;;;;;;;22.06;48.26;95588.97;1051585;28;1479;-57
2021/10/04 01:53:58;;;;;;;;;;;;;;;22.06;48.41;95592.38;1046745;28;1282;-60
2021/10/04 01:54:38;;;;;;;;;;;;;;;22.05;48.38;95585.53;1043086;28;1013;-60
2021/10/04 01:55:09;;;;;;;;;;;;;;;22.05;48.27;95590.81;1042857;28;1910;-58
2021/10/04 01:55:39;;;;;;;;;;;;;;;22.06;48.47;95591.59;1049168;28;799;-60
2021/10/04 01:56:09;;;;;;;;;;;;;;;22.07;48.24;95591.31;1048036;28;1144;-60
2021/10/04 01:56:40;;;;;;;;;;;;;;;22.07;48.14;95593.94;1049434;28;1124;-59
2021/10/04 01:57:10;;;;;;;;;;;;;;;22.06;48.36;95595.03;1049942;28;1250;-58
2021/10/04 01:57:41;;;;;;;;;;;;;;;22.07;48.34;95588.66;1052071;28;1493;-60
2021/10/04 01:58:11;;;;;;;;;;;;;;;22.06;48.34;95584.47;1052395;28;1094;-56
2021/10/04 01:58:41;;;;;;;;;;;;;;;22.07;48.32;95593.19;1053646;28;1272;-56
2021/10/04 01:59:12;;;;;;;;;;;;;;;22.06;48.28;95592.38;1053037;28;1098;-59
2021/10/04 01:59:42;;;;;;;;;;;;;;;22.07;48.31;95591.31;1049366;28;1032;-60
2021/10/04 02:00:13;;;;;;;;;;;;;;;22.07;48.57;95590.53;1051542;28;1865;-59
2021/10/04 02:00:44;;;;;;;;;;;;;;;22.07;48.28;95593.94;1053359;28;1019;-57
2021/10/04 02:01:14;;;;;;;;;;;;;;;22.06;48.29;95592.38;1051322;28;1071;-58
2021/10/04 02:01:45;;;;;;;;;;;;;;;22.06;48.41;95592.38;1051644;28;1144;-60
2021/10/04 02:02:15;;;;;;;;;;;;;;;22.05;48.26;95596.09;1051675;28;1472;-58
2021/10/04 02:02:47;;;;;;;;;;;;;;;22.06;48.49;95595.03;1048631;28;2048;-60
2021/10/04 02:03:17;;;;;;;;;;;;;;;22.06;48.41;95595.03;1052314;28;1072;-59
2021/10/04 02:03:47;;;;;;;;;;;;;;;22.06;48.38;95589.75;1050007;28;1522;-60
2021/10/04 02:04:18;;;;;;;;;;;;;;;22.06;48.14;95591.59;1052134;28;1239;-58
2021/10/04 02:04:48;;;;;;;;;;;;;;;22.05;48.21;95588.16;1053108;28;1118;-59
2021/10/04 02:05:21;;;;;;;;;;;;;;;22.07;48.41;95590.53;1049920;28;1945;-60
2021/10/04 02:05:51;;;;;;;;;;;;;;;22.06;48.49;95588.97;1050977;28;2070;-60
2021/10/04 02:06:22;;;;;;;;;;;;;;;22.07;48.32;95587.91;1048870;28;1619;-60
2021/10/04 02:06:53;;;;;;;;;;;;;;;22.07;48.24;95591.31;1048956;28;1138;-58
2021/10/04 02:07:23;;;;;;;;;;;;;;;22.08;48.39;95592.09;1048198;28;1180;-58
2021/10/04 02:07:54;;;;;;;;;;;;;;;22.07;48.36;95590.53;1051703;28;1273;-60
2021/10/04 02:08:24;;;;;;;;;;;;;;;22.07;48.28;95593.19;1052456;28;1197;-60
2021/10/04 02:08:54;;;;;;;;;;;;;;;22.07;48.35;95596.56;1052356;28;1145;-59
2021/10/04 02:09:25;;;;;;;;;;;;;;;22.07;48.27;95593.19;1052178;28;1871;-59
2021/10/04 02:09:55;;;;;;;;;;;;;;;22.07;48.52;95596.56;1051380;28;1345;-59
2021/10/04 02:10:27;;;;;;;;;;;;;;;22.07;48.50;95590.53;1049637;28;2078;-59
2021/10/04 02:10:57;;;;;;;;;;;;;;;22.06;48.19;95597.66;1053350;28;1091;-59
2021/10/04 02:11:27;;;;;;;;;;;;;;;22.06;48.25;95597.66;1053471;28;1145;-59
2021/10/04 02:11:58;;;;;;;;;;;;;;;22.06;48.39;95597.66;1053378;28;1149;-58
2021/10/04 02:12:28;;;;;;;;;;;;;;;22.06;48.27;95597.66;1049701;28;1094;-60
2021/10/04 02:12:59;;;;;;;;;;;;;;;22.06;48.27;95596.88;1048529;28;1511;-60
2021/10/04 02:13:29;;;;;;;;;;;;;;;22.06;48.21;95597.66;1049282;28;1387;-60
2021/10/04 02:13:59;;;;;;;;;;;;;;;22.06;48.58;95602.94;1049751;28;1135;-59
2021/10/04 02:14:29;;;;;;;;;;;;;;;22.07;48.43;95601.09;1052444;28;1288;-60
2021/10/04 02:15:00;;;;;;;;;;;;;;;22.06;48.25;95595.03;1052428;28;1934;-60
2021/10/04 02:15:30;;;;;;;;;;;;;;;22.06;48.48;95594.22;1048353;28;1596;-60
2021/10/04 02:16:01;;;;;;;;;;;;;;;22.07;48.29;95593.19;1048821;28;1087;-60
2021/10/04 02:16:31;;;;;;;;;;;;;;;22.06;48.13;95595.03;1053354;28;1005;-59
2021/10/04 02:17:02;;;;;;;;;;;;;;;22.07;48.23;95596.56;1050836;28;1142;-56
2021/10/04 02:17:34;;;;;;;;;;;;;;;22.07;48.45;95601.88;1053202;28;1204;-58
2021/10/04 02:18:04;;;;;;;;;;;;;;;22.08;48.26;95600.00;1052296;28;1080;-60
2021/10/04 02:18:35;;;;;;;;;;;;;;;22.07;48.57;95596.56;1051376;28;1305;-59
2021/10/04 02:19:05;;;;;;;;;;;;;;;22.06;48.27;95597.66;1053502;28;1138;-59
2021/10/04 02:19:35;;;;;;;;;;;;;;;22.06;48.14;95597.66;1050342;28;1082;-59
2021/10/04 02:20:07;;;;;;;;;;;;;;;22.07;48.14;95593.94;1051227;28;1911;-59
2021/10/04 02:20:39;;;;;;;;;;;;;;;22.07;48.39;95590.53;1052853;28;1063;-60
2021/10/04 02:21:09;;;;;;;;;;;;;;;22.07;48.24;95585.25;1051526;28;1491;-60
2021/10/04 02:21:40;;;;;;;;;;;;;;;22.07;48.26;95587.91;1053350;28;832;-59
2021/10/04 02:22:10;;;;;;;;;;;;;;;22.08;48.20;95589.44;1051389;28;1206;-58
2021/10/04 02:22:41;;;;;;;;;;;;;;;22.07;48.24;95586.03;1051117;28;1968;-60
2021/10/04 02:23:12;;;;;;;;;;;;;;;22.08;48.19;95587.59;1053549;28;1133;-55
2021/10/04 02:23:42;;;;;;;;;;;;;;;22.08;48.04;95590.25;1050275;28;1377;-59
2021/10/04 02:24:12;;;;;;;;;;;;;;;22.08;48.42;95584.97;1053054;28;1106;-60
2021/10/04 02:24:43;;;;;;;;;;;;;;;22.09;48.16;95588.41;1048543;28;1131;-58
2021/10/04 02:25:13;;;;;;;;;;;;;;;22.08;48.16;95590.25;1048229;28;1217;-58
2021/10/04 02:25:45;;;;;;;;;;;;;;;22.09;48.30;95585.75;1046464;28;1880;-58
2021/10/04 02:26:15;;;;;;;;;;;;;;;22.08;48.14;95586.81;1049193;28;1096;-60
2021/10/04 02:26:46;;;;;;;;;;;;;;;22.08;48.45;95582.31;1052606;28;1215;-59
2021/10/04 02:27:16;;;;;;;;;;;;;;;22.08;48.07;95584.19;1049930;28;1144;-59
2021/10/04 02:27:46;;;;;;;;;;;;;;;22.08;48.55;95579.69;1053121;28;1222;-59
2021/10/04 02:28:17;;;;;;;;;;;;;;;22.06;48.56;95576.56;1053647;28;1127;-60
2021/10/04 02:28:47;;;;;;;;;;;;;;;22.06;48.28;95587.09;1049904;28;1115;-60
2021/10/04 02:29:18;;;;;;;;;;;;;;;22.07;48.49;95583.38;1052718;28;1189;-59
2021/10/04 02:29:48;;;;;;;;;;;;;;;22.07;48.46;95580.75;1053473;28;1098;-57
2021/10/04 02:30:19;;;;;;;;;;;;;;;22.07;48.19;95586.03;1051918;28;1464;-60
2021/10/04 02:30:51;;;;;;;;;;;;;;;22.07;48.21;95583.38;1048662;28;1978;-60
2021/10/04 02:31:21;;;;;;;;;;;;;;;22.08;48.38;95577.03;1051963;28;1908;-60
2021/10/04 02:31:51;;;;;;;;;;;;;;;22.08;48.44;95577.03;1053206;28;1051;-58
2021/10/04 02:32:22;;;;;;;;;;;;;;;22.09;48.38;95580.47;1051729;28;1488;-60
2021/10/04 02:32:52;;;;;;;;;;;;;;;22.07;48.00;95578.09;1049587;28;1904;-57
2021/10/04 02:33:22;;;;;;;;;;;;;;;22.09;48.06;95580.47;1052419;28;1114;-59
2021/10/04 02:33:53;;;;;;;;;;;;;;;22.08;48.28;95578.91;1049881;28;1480;-58
2021/10/04 02:34:23;;;;;;;;;;;;;;;22.08;48.06;95573.63;1050331;28;1550;-58
2021/10/04 02:34:53;;;;;;;;;;;;;;;22.08;48.48;95574.41;1051331;28;1405;-59
2021/10/04 02:35:24;;;;;;;;;;;;;;;22.08;48.13;95574.41;1052577;28;1075;-60
2021/10/04 02:35:54;;;;;;;;;;;;;;;22.07;48.32;95572.81;1052139;28;1930;-60
2021/10/04 02:36:25;;;;;;;;;;;;;;;22.09;48.09;95570.69;1050371;28;1639;-59
2021/10/04 02:36:55;;;;;;;;;;;;;;;22.08;48.39;95571.78;1053185;28;1032;-58
2021/10/04 02:37:25;;;;;;;;;;;;;;;22.09;48.36;95570.69;1050374;28;1223;-59
2021/10/04 02:37:56;;;;;;;;;;;;;;;22.08;48.10;95563.84;1051156;28;1260;-59
2021/10/04 02:38:26;;;;;;;;;;;;;;;22.08;48.14;95569.13;1050826;28;1098;-56
2021/10/04 02:38:57;;;;;;;;;;;;;;;22.09;48.37;95568.03;1052524;28;1047;-58
2021/10/04 02:39:27;;;;;;;;;;;;;;;22.09;48.48;95575.97;1052755;28;1173;-59
2021/10/04 02:39:57;;;;;;;;;;;;;;;22.10;48.10;95568.84;1051845;28;1159;-59
2021/10/04 02:40:28;;;;;;;;;;;;;;;22.10;48.05;95568.84;1048324;28;1521;-58
2021/10/04 02:40:59;;;;;;;;;;;;;;;22.09;48.01;95575.97;1045204;28;1921;-59
2021/10/04 02:41:30;;;;;;;;;;;;;;;22.09;48.08;95570.69;1049721;28;961;-58
2021/10/04 02:42:01;;;;;;;;;;;;;;;22.09;48.06;95570.69;1051321;28;1096;-60
2021/10/04 02:42:31;;;;;;;;;;;;;;;22.08;48.31;95574.41;1049106;28;1914;-57
2021/10/04 02:43:02;;;;;;;;;;;;;;;22.10;48.10;95577.53;1045051;28;1615;-57
2021/10/04 02:43:32;;;;;;;;;;;;;;;22.08;48.35;95574.41;1045733;28;1040;-58
2021/10/04 02:44:02;;;;;;;;;;;;;;;22.08;48.13;95577.03;1046545;28;1709;-58
2021/10/04 02:44:33;;;;;;;;;;;;;;;22.09;48.08;95575.97;1046286;28;1600;-60
2021/10/04 02:45:04;;;;;;;;;;;;;;;22.10;48.30;95576.75;1049367;28;1072;-60
2021/10/04 02:45:34;;;;;;;;;;;;;;;22.09;48.02;95575.97;1044746;28;1213;-57
2021/10/04 02:46:05;;;;;;;;;;;;;;;22.10;47.97;95577.53;1048107;28;1913;-58
2021/10/04 02:46:35;;;;;;;;;;;;;;;22.10;47.98;95574.91;1050318;28;1047;-60
2021/10/04 02:47:05;;;;;;;;;;;;;;;22.10;48.23;95572.25;1049625;28;1158;-58
2021/10/04 02:47:36;;;;;;;;;;;;;;;22.09;47.96;95573.31;1048349;28;1460;-60
2021/10/04 02:48:06;;;;;;;;;;;;;;;22.10;47.98;95569.63;1051721;28;1641;-59
2021/10/04 02:48:37;;;;;;;;;;;;;;;22.11;48.24;95573.84;1049951;28;1938;-59
2021/10/04 02:49:07;;;;;;;;;;;;;;;22.10;48.05;95569.63;1052486;28;1368;-60
2021/10/04 02:49:38;;;;;;;;;;;;;;;22.10;47.94;95574.91;1051825;28;1378;-59
2021/10/04 02:50:09;;;;;;;;;;;;;;;22.11;48.04;95578.34;1052551;28;1112;-58
2021/10/04 02:50:40;;;;;;;;;;;;;;;22.12;47.95;95570.13;1044816;28;1088;-58
2021/10/04 02:51:10;;;;;;;;;;;;;;;22.12;48.01;95575.41;1048036;28;2121;-60
2021/10/04 02:51:41;;;;;;;;;;;;;;;22.12;48.09;95572.75;1048775;28;1206;-55
2021/10/04 02:52:12;;;;;;;;;;;;;;;22.11;47.95;95571.22;1048722;28;1133;-59
2021/10/04 02:52:42;;;;;;;;;;;;;;;22.11;48.04;95584.41;1049027;28;1614;-59
2021/10/04 02:53:13;;;;;;;;;;;;;;;22.11;48.18;95581.75;1051719;28;1079;-60
2021/10/04 02:53:43;;;;;;;;;;;;;;;22.11;48.23;95583.63;1052433;28;1083;-60
2021/10/04 02:54:13;;;;;;;;;;;;;;;22.10;48.23;95582.03;1051487;28;1114;-60
2021/10/04 02:54:44;;;;;;;;;;;;;;;22.11;48.07;95583.63;1049909;28;1118;-59
2021/10/04 02:55:14;;;;;;;;;;;;;;;22.10;48.10;95585.47;1050195;28;1160;-60
2021/10/04 02:55:45;;;;;;;;;;;;;;;22.11;48.04;95583.63;1049568;28;1660;-59
2021/10/04 02:56:15;;;;;;;;;;;;;;;22.10;48.24;95582.81;1051034;28;2215;-58
2021/10/04 02:56:46;;;;;;;;;;;;;;;22.11;48.16;95575.69;1051610;28;1123;-58
2021/10/04 02:57:16;;;;;;;;;;;;;;;22.10;48.10;95576.75;1051528;28;1872;-58
2021/10/04 02:57:47;;;;;;;;;;;;;;;22.11;48.33;95588.91;1049223;28;1205;-60
2021/10/04 02:58:17;;;;;;;;;;;;;;;22.11;47.94;95579.13;1049786;28;1035;-60
2021/10/04 02:58:47;;;;;;;;;;;;;;;22.10;47.98;95584.66;1050184;28;1108;-59
2021/10/04 02:59:17;;;;;;;;;;;;;;;22.10;47.97;95580.19;1051023;28;2042;-58
2021/10/04 02:59:48;;;;;;;;;;;;;;;22.10;47.83;95582.81;1052049;28;1128;-57
2021/10/04 03:00:18;;;;;;;;;;;;;;;22.11;48.30;95581.75;1051766;28;1035;-59
2021/10/04 03:00:49;;;;;;;;;;;;;;;22.11;48.23;95587.03;1052961;28;1968;-58
2021/10/04 03:01:19;;;;;;;;;;;;;;;22.11;48.19;95584.41;1051414;28;1599;-60
2021/10/04 03:01:49;;;;;;;;;;;;;;;22.12;47.92;95579.88;1050035;28;1852;-59
2021/10/04 03:02:20;;;;;;;;;;;;;;;22.12;48.18;95585.16;1049415;28;1630;-60